Walnut Hill, Illinois
Current Conditions -  °F | °C
As of 2:55 PM on Thursday 27 Nov 2014 (Local Time) from KENL Reporting Station
Scattered Clouds Scattered Clouds  
Wind Chill: 23°   Ceiling: Unl
Heat Index: 30°   Visibility: 10mi
Dew Point: 22°   Wind: 8mph
Humidity: 73%   Direction: 320°NW
Pressure: 30.44"   Gusts: NA
Location:  38.48°N, 89.04°W
Report Text: KENL 272055Z AUTO 32007KT 10SM SCT031 SCT037 M01/M05 A3044 RMK AO2 T10101053
Loading
Personal Weather Stations






























Interactive Weather Map New forecast layout! Learn more

10-Day Weather Forecast

Advertisements
Track Severe Weather on mobile